Time;durP1;ratioP1;P1;durP2;ratioP2;P2;SDS_P1;SDS_P2;PMS_P1;PMS_P2;Temp;Humidity;BMP_temperature;BMP_pressure;BME280_temperature;BME280_humidity;BME280_pressure;Samples;Min_cycle;Max_cycle;Signal;HPM_P1;HPM_P2
2023/05/23 00:00:51;;;;;;;19.50;13.23;;;;;;;18.36;71.11;96469.84;4890299;29;20053;-84
2023/05/23 00:03:23;;;;;;;14.68;13.18;;;;;;;18.38;76.28;96475.69;4890258;29;20057;-84
2023/05/23 00:05:53;;;;;;;15.35;13.18;;;;;;;18.43;77.01;96470.53;4891010;29;20053;-85
2023/05/23 00:08:23;;;;;;;14.48;12.70;;;;;;;18.43;72.80;96469.72;4892142;29;20086;-85
2023/05/23 00:10:53;;;;;;;14.75;12.68;;;;;;;18.44;73.54;96472.13;4892657;29;20049;-87
2023/05/23 00:13:21;;;;;;;14.25;12.80;;;;;;;18.44;71.59;96471.34;4891330;29;20061;-82
2023/05/23 00:15:51;;;;;;;14.63;12.55;;;;;;;18.40;71.38;96475.47;4891516;29;20398;-85
2023/05/23 00:18:23;;;;;;;17.88;13.02;;;;;;;18.36;71.04;96475.13;4890706;29;20056;-82
2023/05/23 00:20:52;;;;;;;14.85;12.88;;;;;;;18.33;71.15;96479.03;4890540;29;20060;-89
2023/05/23 00:23:24;;;;;;;15.48;13.75;;;;;;;18.29;70.90;96477.91;4889103;29;20505;-86
2023/05/23 00:25:53;;;;;;;15.30;12.73;;;;;;;18.31;73.99;96489.03;4889540;29;20057;-82
2023/05/23 00:28:21;;;;;;;15.18;13.00;;;;;;;18.31;72.15;96482.97;4890916;29;20148;-84
2023/05/23 00:30:51;;;;;;;17.80;13.23;;;;;;;18.29;70.94;96491.09;4892481;29;20057;-84
2023/05/23 00:33:20;;;;;;;14.90;12.52;;;;;;;18.31;74.44;96483.75;4892822;29;20059;-85
2023/05/23 00:35:48;;;;;;;20.58;14.30;;;;;;;18.27;71.71;96487.91;4892084;29;20053;-83
2023/05/23 00:38:21;;;;;;;16.85;13.52;;;;;;;18.23;71.62;96484.13;4892109;29;20057;-83
2023/05/23 00:40:49;;;;;;;14.38;12.88;;;;;;;18.28;74.99;96491.38;4892518;29;20085;-82
2023/05/23 00:43:21;;;;;;;18.75;13.93;;;;;;;18.28;72.20;96494.00;4891004;29;20073;-82
2023/05/23 00:45:49;;;;;;;13.43;12.02;;;;;;;18.24;71.85;96484.94;4890355;29;20057;-82
2023/05/23 00:48:18;;;;;;;14.18;12.65;;;;;;;18.26;75.53;96475.75;4891613;29;20057;-85
2023/05/23 00:50:47;;;;;;;18.67;14.30;;;;;;;18.26;72.75;96482.88;4891875;29;20057;-85
2023/05/23 00:53:17;;;;;;;17.02;14.30;;;;;;;18.20;72.02;96487.22;4891180;29;20577;-84
2023/05/23 00:55:50;;;;;;;15.10;13.52;;;;;;;18.20;72.16;96486.44;4891931;29;20069;-83
2023/05/23 00:58:18;;;;;;;16.88;13.82;;;;;;;18.18;71.91;96481.38;4893445;29;20053;-83
2023/05/23 01:00:53;;;;;;;15.00;13.45;;;;;;;18.23;76.70;96488.59;4891445;29;20056;-85
2023/05/23 01:03:22;;;;;;;15.73;14.10;;;;;;;18.26;77.07;96488.94;4891665;29;20074;-82
2023/05/23 01:05:50;;;;;;;18.60;14.43;;;;;;;18.23;75.16;96489.41;4890896;29;20053;-85
2023/05/23 01:08:20;;;;;;;16.73;13.63;;;;;;;18.19;73.82;96479.53;4892191;29;20057;-82
2023/05/23 01:10:51;;;;;;;16.55;12.77;;;;;;;18.22;76.95;96487.00;4894978;29;20049;-85
2023/05/23 01:13:32;;;;;;;16.35;13.57;;;;;;;18.20;73.37;96487.22;4894629;29;20108;-85
2023/05/23 01:16:10;;;;;;;16.23;14.13;;;;;;;18.16;72.41;96490.56;4894843;29;20077;-84
2023/05/23 01:18:53;;;;;;;17.80;15.25;;;;;;;18.14;73.21;96490.78;4894115;29;20477;-85
2023/05/23 01:21:26;;;;;;;17.15;13.88;;;;;;;18.12;72.86;96496.28;4894012;29;20078;-85
2023/05/23 01:24:21;;;;;;;17.30;13.02;;;;;;;18.16;78.61;96491.38;4893629;29;20089;-86
2023/05/23 01:27:05;;;;;;;18.38;15.05;;;;;;;18.16;73.18;96490.56;4892634;29;20053;-84
2023/05/23 01:29:38;;;;;;;16.85;14.55;;;;;;;18.09;71.90;96488.84;4892063;29;20069;-85
2023/05/23 01:32:10;;;;;;;18.77;16.13;;;;;;;18.09;77.62;96480.94;4891433;29;20105;-84
2023/05/23 01:34:39;;;;;;;17.23;14.88;;;;;;;18.10;74.40;96484.38;4891087;29;20140;-85
2023/05/23 01:37:17;;;;;;;15.40;13.77;;;;;;;18.11;78.30;96489.44;4890438;29;20076;-82
2023/05/23 01:39:49;;;;;;;19.13;15.30;;;;;;;18.08;74.21;96489.91;4890548;29;20053;-82
2023/05/23 01:42:27;;;;;;;20.15;15.65;;;;;;;18.04;75.42;96493.25;4889257;29;20055;-85
2023/05/23 01:44:58;;;;;;;15.68;13.82;;;;;;;18.05;76.78;96500.91;4889188;29;20052;-82
2023/05/23 01:47:32;;;;;;;18.45;15.63;;;;;;;17.99;73.28;96499.19;4888277;29;20083;-81
2023/05/23 01:50:07;;;;;;;21.30;16.80;;;;;;;17.91;73.37;96500.34;4888781;29;20077;-83
2023/05/23 01:52:38;;;;;;;21.55;16.27;;;;;;;17.88;73.37;96500.00;4887766;29;20072;-82
2023/05/23 01:55:21;;;;;;;20.15;16.25;;;;;;;17.90;75.92;96503.22;4886804;29;20057;-82
2023/05/23 01:57:56;;;;;;;23.30;17.00;;;;;;;17.84;73.44;96498.84;4887385;29;20053;-83
2023/05/23 02:00:27;;;;;;;20.63;16.60;;;;;;;17.80;73.99;96498.50;4887852;29;20566;-84
2023/05/23 02:02:54;;;;;;;22.42;17.60;;;;;;;17.81;76.28;96499.28;4886767;29;20063;-83
2023/05/23 02:05:26;;;;;;;28.52;18.48;;;;;;;17.86;76.67;96504.69;4886329;29;20132;-82
2023/05/23 02:08:00;;;;;;;34.05;19.08;;;;;;;17.92;75.43;96503.78;4886777;29;20057;-84
2023/05/23 02:10:33;;;;;;;25.80;19.42;;;;;;;17.92;77.29;96514.34;4893531;29;20053;-86
2023/05/23 02:13:06;;;;;;;25.92;19.48;;;;;;;17.86;74.45;96520.53;4895363;29;20053;-85
2023/05/23 02:15:40;;;;;;;24.53;19.83;;;;;;;17.80;73.79;96524.06;4894359;29;20057;-86
2023/05/23 02:18:11;;;;;;;25.45;19.50;;;;;;;17.81;75.32;96517.75;4893477;29;20049;-84
2023/05/23 02:20:40;;;;;;;26.63;20.13;;;;;;;17.83;75.52;96515.72;4892585;29;20081;-82
2023/05/23 02:23:12;;;;;;;30.65;22.38;;;;;;;17.82;74.60;96514.94;4892335;29;20045;-81
2023/05/23 02:25:44;;;;;;;26.17;21.08;;;;;;;17.83;75.21;96518.38;4892004;29;20391;-89
2023/05/23 02:28:14;;;;;;;29.75;20.75;;;;;;;17.83;76.80;96516.53;4890872;29;20057;-85
2023/05/23 02:30:52;;;;;;;30.25;22.50;;;;;;;17.84;77.97;96518.16;4890781;29;20506;-84
2023/05/23 02:33:21;;;;;;;34.03;24.95;;;;;;;17.81;75.44;96510.63;4889499;29;20340;-82
2023/05/23 02:35:54;;;;;;;39.92;26.08;;;;;;;17.81;76.09;96515.91;4889405;29;20056;-85
2023/05/23 02:38:22;;;;;;;34.60;25.13;;;;;;;17.82;76.43;96516.75;4888064;29;20068;-85
2023/05/23 02:40:52;;;;;;;36.40;25.77;;;;;;;17.82;76.68;96516.75;4888247;29;20116;-82
2023/05/23 02:43:26;;;;;;;33.80;24.95;;;;;;;17.84;77.84;96525.25;4887108;29;20049;-84
2023/05/23 02:45:58;;;;;;;39.90;26.35;;;;;;;17.77;75.76;96513.97;4887175;29;20417;-82
2023/05/23 02:48:27;;;;;;;37.30;26.55;;;;;;;17.71;76.19;96511.22;4887412;29;20090;-82
2023/05/23 02:50:57;;;;;;;39.25;27.98;;;;;;;17.66;75.45;96519.00;4887320;29;20065;-82
2023/05/23 02:53:29;;;;;;;39.10;27.17;;;;;;;17.63;75.94;96518.69;4888110;29;20049;-84
2023/05/23 02:56:04;;;;;;;34.00;26.33;;;;;;;17.61;75.56;96508.34;4887938;29;20057;-82
2023/05/23 02:58:34;;;;;;;34.75;24.85;;;;;;;17.62;76.70;96517.06;4887737;29;20104;-83
2023/05/23 03:01:10;;;;;;;38.92;25.88;;;;;;;17.63;77.97;96510.75;4884918;29;20079;-86
2023/05/23 03:03:40;;;;;;;41.85;28.55;;;;;;;17.55;76.67;96506.63;4883231;29;20057;-87
2023/05/23 03:06:13;;;;;;;35.22;24.98;;;;;;;17.58;77.44;96513.25;4883191;29;20049;-85
2023/05/23 03:08:46;;;;;;;41.97;29.25;;;;;;;17.55;76.83;96508.47;4888239;29;20533;-89
2023/05/23 03:11:18;;;;;;;41.38;27.23;;;;;;;17.53;76.51;96513.94;4888378;29;20445;-88
2023/05/23 03:13:51;;;;;;;40.15;27.90;;;;;;;17.53;76.29;96516.59;4887824;29;20053;-86
2023/05/23 03:16:22;;;;;;;36.20;26.73;;;;;;;17.48;77.95;96512.00;4888901;29;20516;-86
2023/05/23 03:18:54;;;;;;;29.77;23.15;;;;;;;17.49;78.88;96507.53;4890966;29;20049;-87
2023/05/23 03:21:22;;;;;;;35.83;24.40;;;;;;;17.52;78.82;96515.00;4890276;29;20053;-83
2023/05/23 03:23:50;;;;;;;37.35;27.58;;;;;;;17.52;77.08;96522.13;4890655;29;20072;-86
2023/05/23 03:26:20;;;;;;;34.50;25.77;;;;;;;17.51;78.47;96521.28;4891209;29;20132;-85
2023/05/23 03:28:50;;;;;;;38.35;27.83;;;;;;;17.53;77.99;96528.97;4892649;29;20057;-83
2023/05/23 03:31:22;;;;;;;38.92;27.90;;;;;;;17.54;77.08;96531.41;4892864;29;20057;-87
2023/05/23 03:36:39;;;;;;;41.17;28.75;;;;;;;17.53;76.39;96524.50;4890669;29;20061;-87
2023/05/23 03:39:07;;;;;;;38.97;27.60;;;;;;;17.50;77.83;96524.97;4893089;29;20072;-87
2023/05/23 03:41:37;;;;;;;39.38;27.92;;;;;;;17.52;77.54;96522.91;4891981;29;20049;-86
2023/05/23 03:44:08;;;;;;;38.17;25.27;;;;;;;17.55;78.67;96530.34;4891581;29;20049;-86
2023/05/23 03:46:40;;;;;;;36.30;26.92;;;;;;;17.58;77.61;96529.91;4892389;29;20054;-87
2023/05/23 03:49:09;;;;;;;44.13;29.63;;;;;;;17.59;77.20;96539.41;4891237;29;20049;-86
2023/05/23 03:51:37;;;;;;;41.97;29.05;;;;;;;17.56;77.11;96537.25;4890633;29;20069;-83
2023/05/23 03:54:05;;;;;;;36.83;27.55;;;;;;;17.53;78.79;96548.22;4892558;29;20049;-84
2023/05/23 03:56:33;;;;;;;37.97;26.92;;;;;;;17.53;78.62;96540.31;4897500;29;20065;-86
2023/05/23 03:59:01;;;;;;;39.10;28.80;;;;;;;17.56;78.85;96541.69;4892096;29;20045;-80
2023/05/23 04:01:28;;;;;;;45.38;31.02;;;;;;;17.55;77.49;96542.75;4880881;29;20491;-80
2023/05/23 04:03:58;;;;;;;46.33;31.98;;;;;;;17.54;77.16;96551.69;4886487;29;20072;-79
2023/05/23 04:06:30;;;;;;;40.38;26.77;;;;;;;17.52;78.06;96546.63;4890154;29;20041;-83
2023/05/23 04:08:57;;;;;;;50.15;31.92;;;;;;;17.52;77.36;96545.84;4888552;29;20053;-81
2023/05/23 04:11:25;;;;;;;39.47;28.63;;;;;;;17.53;78.59;96550.88;4888303;29;20057;-83
2023/05/23 04:13:53;;;;;;;46.88;30.15;;;;;;;17.55;77.54;96542.75;4890246;29;20049;-81
2023/05/23 04:16:22;;;;;;;44.83;31.10;;;;;;;17.48;77.64;96542.84;4905896;23;20506;-75
2023/05/23 04:18:50;;;;;;;50.70;31.48;;;;;;;17.43;77.55;96548.00;4869159;29;20057;-74
2023/05/23 04:21:19;;;;;;;46.65;30.88;;;;;;;17.41;78.00;96544.78;4879950;29;20060;-75
2023/05/23 04:23:47;;;;;;;47.35;31.73;;;;;;;17.36;78.20;96544.66;4880910;29;20060;-75
2023/05/23 04:26:15;;;;;;;46.40;30.45;;;;;;;17.36;78.35;96539.38;4880744;29;20053;-75
2023/05/23 04:28:45;;;;;;;42.80;29.35;;;;;;;17.39;78.92;96539.72;4865350;29;20081;-75
2023/05/23 04:31:12;;;;;;;41.88;29.38;;;;;;;17.42;78.88;96541.91;4873777;29;20045;-73
2023/05/23 04:33:40;;;;;;;46.80;31.02;;;;;;;17.46;78.45;96542.25;4885888;29;20160;-74
2023/05/23 04:36:10;;;;;;;42.15;29.80;;;;;;;17.50;78.16;96540.78;4863695;29;20053;-77
2023/05/23 04:38:39;;;;;;;46.88;32.05;;;;;;;17.49;77.55;96547.91;4870567;29;20454;-74
2023/05/23 04:41:09;;;;;;;41.60;30.40;;;;;;;17.49;78.12;96550.53;4880613;29;20049;-74
2023/05/23 04:43:41;;;;;;;42.35;29.05;;;;;;;17.51;78.48;96558.19;4880457;29;20454;-74
2023/05/23 04:46:09;;;;;;;49.85;33.55;;;;;;;17.46;77.85;96558.88;4879153;29;20045;-74
2023/05/23 04:48:38;;;;;;;44.30;29.95;;;;;;;17.48;78.85;96556.03;4879873;29;20458;-74
2023/05/23 04:51:06;;;;;;;47.78;31.67;;;;;;;17.49;78.49;96562.91;4880152;29;20053;-74
2023/05/23 04:53:35;;;;;;;49.92;32.97;;;;;;;17.49;78.20;96561.09;4879890;29;20100;-74
2023/05/23 04:56:04;;;;;;;46.30;31.15;;;;;;;17.55;78.57;96567.28;4879976;29;20055;-74
2023/05/23 04:58:32;;;;;;;44.33;30.38;;;;;;;17.57;77.86;96565.22;4879696;29;20099;-74
2023/05/23 05:01:00;;;;;;;49.28;32.58;;;;;;;17.55;78.11;96569.91;4875048;29;20049;-74
2023/05/23 05:03:27;;;;;;;54.58;34.50;;;;;;;17.52;77.57;96569.59;4873421;29;20125;-74
2023/05/23 05:05:56;;;;;;;47.13;32.45;;;;;;;17.50;78.29;96567.16;4864879;29;20053;-75
2023/05/23 05:08:23;;;;;;;49.92;33.25;;;;;;;17.50;78.64;96572.44;4865018;29;20578;-75
2023/05/23 05:10:51;;;;;;;51.38;33.05;;;;;;;17.51;78.46;96566.13;4861394;29;20062;-74
2023/05/23 05:13:20;;;;;;;47.88;31.35;;;;;;;17.53;78.18;96571.97;4861844;29;20538;-74
2023/05/23 05:15:47;;;;;;;43.72;30.55;;;;;;;17.53;78.28;96582.53;4863322;29;20117;-74
2023/05/23 05:18:15;;;;;;;50.50;32.63;;;;;;;17.54;77.64;96578.88;4868609;29;20057;-74
2023/05/23 05:20:43;;;;;;;48.28;32.78;;;;;;;17.52;77.70;96580.13;4879741;29;20109;-74
2023/05/23 05:23:10;;;;;;;45.58;31.60;;;;;;;17.53;77.63;96579.09;4877050;29;20446;-74
2023/05/23 05:25:40;;;;;;;43.50;30.05;;;;;;;17.54;78.31;96578.06;4872025;29;20094;-74
2023/05/23 05:28:07;;;;;;;50.30;32.25;;;;;;;17.56;77.41;96586.53;4898359;29;20059;-74
2023/05/23 05:30:37;;;;;;;51.47;33.33;;;;;;;17.54;77.10;96578.88;4898304;29;20513;-75
2023/05/23 05:33:06;;;;;;;42.65;30.20;;;;;;;17.51;77.71;96579.31;4886884;29;20060;-77
2023/05/23 05:35:34;;;;;;;39.65;28.05;;;;;;;17.54;77.90;96585.97;4892644;29;20495;-75
2023/05/23 05:38:03;;;;;;;51.20;31.92;;;;;;;17.53;76.88;96585.16;4879765;29;20432;-74
2023/05/23 05:40:31;;;;;;;46.58;29.77;;;;;;;17.50;76.98;96582.97;4879710;29;20115;-74
2023/05/23 05:42:59;;;;;;;43.22;28.60;;;;;;;17.48;76.83;96587.69;4872273;29;20060;-74
2023/05/23 05:45:26;;;;;;;39.88;28.17;;;;;;;17.50;77.22;96596.16;4872960;29;20080;-75
2023/05/23 05:47:55;;;;;;;39.38;27.65;;;;;;;17.54;76.90;96589.41;4877553;29;20076;-74
2023/05/23 05:50:23;;;;;;;35.28;25.85;;;;;;;17.55;76.68;96596.28;4877475;29;20108;-74
2023/05/23 05:52:50;;;;;;;34.97;25.42;;;;;;;17.52;76.62;96599.38;4877267;29;20577;-74
2023/05/23 05:55:18;;;;;;;37.40;26.73;;;;;;;17.54;76.95;96594.69;4877170;29;20053;-75
2023/05/23 05:57:46;;;;;;;32.63;25.48;;;;;;;17.54;76.85;96597.34;4877221;29;20049;-75
2023/05/23 06:00:14;;;;;;;35.25;27.13;;;;;;;17.52;76.51;96601.22;4877395;29;20053;-74
2023/05/23 06:02:42;;;;;;;38.13;27.27;;;;;;;17.48;76.30;96604.28;4879223;29;20088;-75
2023/05/23 06:05:12;;;;;;;36.65;25.55;;;;;;;17.46;76.59;96602.91;4878795;29;20101;-75
2023/05/23 06:07:40;;;;;;;36.30;25.65;;;;;;;17.47;76.56;96605.34;4881093;29;20059;-74
2023/05/23 06:10:11;;;;;;;35.45;24.45;;;;;;;17.47;77.17;96601.88;4878947;29;20045;-74
2023/05/23 06:12:39;;;;;;;33.67;25.52;;;;;;;17.48;76.59;96595.59;4879124;29;20081;-74
2023/05/23 06:15:08;;;;;;;37.30;25.45;;;;;;;17.51;76.04;96603.03;4879022;29;20254;-74
2023/05/23 06:17:36;;;;;;;34.15;25.45;;;;;;;17.55;76.12;96606.03;4878758;29;20052;-74
2023/05/23 06:20:04;;;;;;;33.95;26.20;;;;;;;17.56;76.06;96605.81;4878988;29;20434;-74
2023/05/23 06:22:33;;;;;;;35.60;25.10;;;;;;;17.58;75.72;96600.31;4878641;29;20089;-75
2023/05/23 06:25:01;;;;;;;31.52;24.40;;;;;;;17.59;75.70;96594.81;4878297;29;20463;-74
2023/05/23 06:27:29;;;;;;;32.42;23.80;;;;;;;17.61;75.50;96590.13;4878785;29;20097;-74
2023/05/23 06:29:56;;;;;;;31.63;23.48;;;;;;;17.61;75.10;96595.38;4878896;29;20091;-74
2023/05/23 06:32:24;;;;;;;31.90;23.00;;;;;;;17.62;75.07;96589.09;4878697;29;20083;-74
2023/05/23 06:34:51;;;;;;;28.77;22.33;;;;;;;17.63;74.16;96598.59;4878327;29;20415;-74
2023/05/23 06:37:19;;;;;;;26.00;20.58;;;;;;;17.68;74.87;96595.28;4879081;29;20045;-75
2023/05/23 06:39:48;;;;;;;32.42;22.42;;;;;;;17.70;74.21;96598.50;4878770;29;20084;-75
2023/05/23 06:42:15;;;;;;;24.50;20.02;;;;;;;17.73;74.34;96602.50;4878644;29;20048;-75
2023/05/23 06:44:43;;;;;;;28.17;22.10;;;;;;;17.72;73.68;96607.00;4878158;29;20061;-75
2023/05/23 06:47:11;;;;;;;28.33;21.02;;;;;;;17.70;73.41;96601.94;4878523;29;20053;-75
2023/05/23 06:49:38;;;;;;;25.27;20.08;;;;;;;17.71;73.32;96605.41;4878852;29;20081;-75
2023/05/23 06:52:06;;;;;;;27.33;20.50;;;;;;;17.69;73.34;96608.25;4878623;29;20477;-75
2023/05/23 06:54:33;;;;;;;28.52;19.90;;;;;;;17.67;73.47;96609.53;4878287;29;20454;-75
2023/05/23 06:57:02;;;;;;;25.58;20.40;;;;;;;17.65;73.19;96612.38;4878322;29;20121;-75
2023/05/23 06:59:30;;;;;;;24.98;19.45;;;;;;;17.64;73.42;96620.50;4878375;29;20105;-75
2023/05/23 07:01:58;;;;;;;26.88;20.42;;;;;;;17.62;73.46;96618.13;4878373;29;20109;-75
2023/05/23 07:04:25;;;;;;;26.48;20.27;;;;;;;17.65;73.60;96622.94;4877974;29;20052;-75
2023/05/23 07:06:53;;;;;;;25.23;19.75;;;;;;;17.67;73.44;96631.41;4878187;29;20108;-75
2023/05/23 07:09:21;;;;;;;22.70;18.50;;;;;;;17.73;72.72;96626.25;4878253;29;20049;-75
2023/05/23 07:11:48;;;;;;;21.63;17.98;;;;;;;17.79;72.70;96633.28;4878440;29;20108;-75
2023/05/23 07:14:19;;;;;;;23.33;18.98;;;;;;;17.86;72.32;96626.09;4877938;29;20075;-75
2023/05/23 07:16:47;;;;;;;23.73;19.13;;;;;;;17.94;71.63;96630.25;4877775;29;20097;-75
2023/05/23 07:19:14;;;;;;;22.85;17.25;;;;;;;18.01;71.39;96630.94;4878256;29;20053;-75
2023/05/23 07:21:42;;;;;;;20.38;17.75;;;;;;;18.04;71.26;96636.56;4878353;29;20080;-75
2023/05/23 07:24:09;;;;;;;23.38;18.83;;;;;;;18.07;70.84;96640.56;4877751;29;20213;-75
2023/05/23 07:26:37;;;;;;;22.85;17.55;;;;;;;18.07;71.05;96641.38;4877829;29;20049;-75
2023/05/23 07:29:05;;;;;;;19.30;16.63;;;;;;;18.09;70.85;96641.94;4877921;29;20060;-75
2023/05/23 07:31:34;;;;;;;24.55;17.50;;;;;;;18.12;70.98;96641.47;4878235;29;20057;-76
2023/05/23 07:34:02;;;;;;;20.60;17.30;;;;;;;18.12;70.32;96644.13;4878394;29;20056;-75
2023/05/23 07:36:32;;;;;;;22.05;17.35;;;;;;;18.12;70.37;96638.06;4878382;29;20060;-75
2023/05/23 07:39:01;;;;;;;21.15;17.25;;;;;;;18.12;70.45;96644.13;4878649;29;20053;-76
2023/05/23 07:41:28;;;;;;;18.77;16.02;;;;;;;18.17;70.23;96642.63;4878157;29;20049;-75
2023/05/23 07:43:56;;;;;;;21.35;16.75;;;;;;;18.18;69.65;96652.19;4877992;29;20153;-76
2023/05/23 07:46:23;;;;;;;22.48;19.00;;;;;;;18.16;69.42;96646.31;4878209;29;20053;-75
2023/05/23 07:48:52;;;;;;;21.42;18.27;;;;;;;18.15;69.84;96652.63;4878272;29;20048;-75
2023/05/23 07:51:20;;;;;;;20.55;16.92;;;;;;;18.16;69.88;96654.25;4878289;29;20061;-76
2023/05/23 07:53:48;;;;;;;24.83;19.23;;;;;;;18.16;69.78;96651.59;4878401;29;20525;-76
2023/05/23 07:56:16;;;;;;;22.23;18.58;;;;;;;18.17;70.22;96650.56;4881081;29;20057;-75
2023/05/23 07:58:43;;;;;;;25.40;19.98;;;;;;;18.17;70.03;96653.19;4881958;29;20088;-75
2023/05/23 08:01:11;;;;;;;22.70;18.92;;;;;;;18.15;70.09;96652.63;4882202;29;20156;-76
2023/05/23 08:03:39;;;;;;;23.08;19.13;;;;;;;18.13;69.65;96650.22;4882058;29;20053;-75
2023/05/23 08:06:08;;;;;;;25.38;18.15;;;;;;;18.09;69.83;96651.72;4881225;29;20052;-75
2023/05/23 08:08:36;;;;;;;26.90;19.98;;;;;;;18.08;69.42;96643.00;4881322;29;20081;-75
2023/05/23 08:11:04;;;;;;;24.10;19.17;;;;;;;18.12;69.46;96646.75;4881360;29;20068;-76
2023/05/23 08:13:32;;;;;;;22.00;18.13;;;;;;;18.20;69.16;96642.19;4881664;29;20124;-76
2023/05/23 08:15:59;;;;;;;21.23;18.33;;;;;;;18.35;68.61;96642.56;4881019;29;20092;-76
2023/05/23 08:18:27;;;;;;;22.67;17.80;;;;;;;18.50;68.10;96644.72;4881278;29;20045;-76
2023/05/23 08:20:55;;;;;;;23.15;18.20;;;;;;;18.67;67.42;96644.81;4881883;29;20113;-75
2023/05/23 08:23:24;;;;;;;21.58;17.58;;;;;;;18.79;66.03;96645.63;4881624;29;20506;-76
2023/05/23 08:25:52;;;;;;;27.00;20.38;;;;;;;18.88;65.41;96652.16;4881132;29;20057;-76
2023/05/23 08:28:20;;;;;;;23.75;19.90;;;;;;;18.94;64.97;96648.59;4881297;29;20085;-75
2023/05/23 08:30:48;;;;;;;21.05;17.10;;;;;;;18.99;64.77;96652.38;4882615;29;20053;-75
2023/05/23 08:33:15;;;;;;;20.50;16.85;;;;;;;19.00;64.50;96651.31;4882197;29;20402;-74
2023/05/23 08:35:43;;;;;;;20.33;17.55;;;;;;;19.03;63.98;96664.09;4881091;29;20136;-75
2023/05/23 08:38:11;;;;;;;20.85;16.90;;;;;;;19.06;63.78;96659.13;4880784;29;20049;-75
2023/05/23 08:40:45;;;;;;;17.55;15.20;;;;;;;19.10;64.07;96672.69;4880952;29;20056;-75
2023/05/23 08:43:13;;;;;;;20.35;15.35;;;;;;;19.14;63.68;96671.97;4880961;29;20061;-75
2023/05/23 08:45:41;;;;;;;20.73;18.42;;;;;;;19.21;63.56;96669.19;4880357;29;20049;-75
2023/05/23 08:48:10;;;;;;;21.15;16.50;;;;;;;19.27;63.39;96670.91;4880613;29;20068;-75
2023/05/23 08:50:40;;;;;;;20.05;16.63;;;;;;;19.38;63.33;96663.19;4880624;29;20510;-75
2023/05/23 08:53:09;;;;;;;20.45;16.85;;;;;;;19.47;63.23;96665.19;4880617;29;20057;-75
2023/05/23 08:55:38;;;;;;;21.08;16.80;;;;;;;19.53;62.95;96660.81;4880218;29;20429;-75
2023/05/23 08:58:07;;;;;;;23.67;16.70;;;;;;;19.59;62.56;96667.81;4880417;29;20045;-75
2023/05/23 09:00:35;;;;;;;21.33;17.83;;;;;;;19.62;62.50;96667.31;4880524;29;20436;-75
2023/05/23 09:03:03;;;;;;;21.67;17.50;;;;;;;19.60;62.70;96673.91;4880379;29;20322;-75
2023/05/23 09:05:31;;;;;;;19.08;15.40;;;;;;;19.67;63.24;96670.06;4880073;29;20049;-75
2023/05/23 09:07:58;;;;;;;18.58;16.20;;;;;;;19.82;62.13;96674.84;4879127;29;20052;-75
2023/05/23 09:10:28;;;;;;;20.40;15.43;;;;;;;19.90;61.04;96678.97;4880265;29;20144;-75
2023/05/23 09:12:57;;;;;;;18.02;15.63;;;;;;;19.92;60.75;96675.03;4880365;29;20077;-75
2023/05/23 09:15:26;;;;;;;17.20;13.75;;;;;;;19.92;60.75;96682.97;4879895;29;20060;-75
2023/05/23 09:17:53;;;;;;;19.10;15.23;;;;;;;19.88;60.82;96678.41;4880324;29;20540;-75
2023/05/23 09:20:21;;;;;;;20.42;16.17;;;;;;;19.83;60.45;96694.16;4879878;29;20048;-76
2023/05/23 09:22:49;;;;;;;21.45;16.50;;;;;;;19.78;60.27;96692.25;4879967;29;20136;-75
2023/05/23 09:25:17;;;;;;;20.00;16.33;;;;;;;19.69;60.60;96693.66;4879724;29;20577;-75
2023/05/23 09:27:44;;;;;;;18.02;16.10;;;;;;;19.63;60.75;96700.66;4879975;29;20045;-75
2023/05/23 09:30:15;;;;;;;19.30;16.92;;;;;;;19.60;60.88;96705.66;4879955;29;20053;-75
2023/05/23 09:32:58;;;;;;;19.33;17.15;;;;;;;19.55;60.54;96704.50;4880008;29;20458;-75
2023/05/23 09:35:29;;;;;;;18.98;16.23;;;;;;;19.48;60.32;96700.38;4879524;29;20053;-75
2023/05/23 09:37:58;;;;;;;19.48;15.00;;;;;;;19.40;60.48;96695.50;4879860;29;20090;-75
2023/05/23 09:40:30;;;;;;;18.15;13.90;;;;;;;19.38;60.85;96700.22;4879964;29;20099;-74
2023/05/23 09:43:03;;;;;;;19.90;16.33;;;;;;;19.39;60.35;96696.53;4879521;29;20109;-74
2023/05/23 09:45:31;;;;;;;20.63;16.00;;;;;;;19.39;60.40;96693.88;4879574;29;20126;-74
2023/05/23 09:48:01;;;;;;;17.83;15.05;;;;;;;19.41;60.40;96691.78;4879562;29;20485;-74
2023/05/23 09:50:32;;;;;;;16.67;14.77;;;;;;;19.46;60.70;96694.53;4879757;29;20056;-75
2023/05/23 09:53:00;;;;;;;17.17;15.38;;;;;;;19.52;60.47;96690.94;4879331;29;20135;-75
2023/05/23 09:55:28;;;;;;;18.02;14.27;;;;;;;19.63;60.56;96686.66;4878973;29;20057;-75
2023/05/23 09:57:58;;;;;;;15.95;12.18;;;;;;;19.79;60.48;96693.03;4879168;29;20522;-75
2023/05/23 10:00:27;;;;;;;15.02;13.20;;;;;;;19.88;59.75;96694.28;4879357;29;20053;-75
2023/05/23 10:03:00;;;;;;;14.38;12.88;;;;;;;19.93;58.79;96704.94;4879454;29;20132;-75
2023/05/23 10:05:35;;;;;;;13.85;12.15;;;;;;;19.92;58.16;96703.34;4878822;29;20576;-75
2023/05/23 10:08:09;;;;;;;16.25;12.63;;;;;;;19.91;58.26;96699.09;4879421;29;20057;-75
2023/05/23 10:11:21;;;;;;;13.52;11.73;;;;;;;19.99;57.53;96709.28;4880205;29;20049;-75
2023/05/23 10:13:50;;;;;;;12.27;10.98;;;;;;;20.07;58.09;96706.25;4879077;29;20117;-75
2023/05/23 11:20:41;;;;;;;11.75;10.43;;;;;;;20.19;53.92;96721.28;4754710;30;20074;-80
2023/05/23 11:54:06;;;;;;;13.07;10.73;;;;;;;20.13;52.63;96731.75;4839742;29;20058;-75
2023/05/23 11:56:40;;;;;;;11.10;9.55;;;;;;;20.09;52.28;96725.34;4840953;29;20053;-75
2023/05/23 11:59:07;;;;;;;9.90;8.90;;;;;;;20.11;52.92;96727.75;4841596;29;20513;-75
2023/05/23 12:01:37;;;;;;;11.63;9.85;;;;;;;20.12;53.00;96730.16;4840733;29;20575;-75
2023/05/23 12:04:11;;;;;;;11.82;10.63;;;;;;;20.07;52.63;96723.97;4841034;29;20137;-75
2023/05/23 12:06:40;;;;;;;10.02;9.00;;;;;;;20.05;52.90;96728.69;4841342;29;20579;-75
2023/05/23 12:09:11;;;;;;;11.98;10.65;;;;;;;20.10;52.76;96723.50;4840998;29;20080;-75
2023/05/23 12:11:40;;;;;;;13.00;10.73;;;;;;;20.12;53.17;96732.81;4841031;29;20058;-75
2023/05/23 12:14:08;;;;;;;12.57;10.30;;;;;;;20.11;53.58;96719.81;4841402;29;20050;-75
2023/05/23 12:16:36;;;;;;;11.65;10.30;;;;;;;20.13;53.21;96728.31;4841127;29;20479;-75
2023/05/23 12:19:06;;;;;;;12.50;10.35;;;;;;;20.14;53.37;96717.50;4841290;29;20054;-75
2023/05/23 12:21:44;;;;;;;12.93;10.45;;;;;;;20.19;52.30;96718.63;4840815;29;20673;-75
2023/05/23 12:24:16;;;;;;;10.82;9.63;;;;;;;20.25;51.82;96713.16;4840795;29;20110;-75
2023/05/23 12:26:48;;;;;;;10.45;9.15;;;;;;;20.36;51.88;96716.78;4840896;29;20079;-75
2023/05/23 12:29:16;;;;;;;12.60;8.65;;;;;;;20.46;51.55;96708.97;4840684;29;20408;-75
2023/05/23 12:31:44;;;;;;;10.30;8.07;;;;;;;20.53;50.03;96708.81;4840854;29;20533;-75
2023/05/23 12:34:13;;;;;;;7.00;6.15;;;;;;;20.62;47.51;96710.06;4840952;29;20058;-75
2023/05/23 12:36:41;;;;;;;8.40;6.93;;;;;;;20.67;47.81;96710.13;4841264;29;20058;-75
2023/05/23 12:39:24;;;;;;;7.78;6.97;;;;;;;20.71;47.88;96705.13;4840945;29;20054;-75
2023/05/23 12:41:52;;;;;;;13.65;9.07;;;;;;;20.73;48.61;96689.78;4842712;29;20098;-75
2023/05/23 12:44:19;;;;;;;11.70;8.20;;;;;;;20.73;49.25;96700.41;4843800;29;20087;-75
2023/05/23 12:46:48;;;;;;;9.68;8.10;;;;;;;20.72;50.03;96701.44;4844110;29;20054;-75
2023/05/23 12:49:15;;;;;;;6.95;6.28;;;;;;;20.65;49.44;96706.91;4844241;29;20345;-75
2023/05/23 12:51:43;;;;;;;8.73;6.97;;;;;;;20.64;49.35;96694.72;4843812;29;20472;-75
2023/05/23 12:54:11;;;;;;;7.88;6.75;;;;;;;20.64;49.23;96704.50;4851897;29;20485;-75
2023/05/23 12:56:40;;;;;;;9.35;6.72;;;;;;;20.60;49.27;96698.88;4859868;29;20053;-75
2023/05/23 12:59:07;;;;;;;8.02;6.60;;;;;;;20.58;49.38;96700.97;4859755;29;20292;-75
2023/05/23 13:01:35;;;;;;;9.07;5.90;;;;;;;20.53;49.99;96699.03;4851717;29;20446;-75
2023/05/23 13:04:03;;;;;;;6.40;5.65;;;;;;;20.56;50.28;96700.38;4844120;29;20114;-75
2023/05/23 13:06:32;;;;;;;7.43;6.05;;;;;;;20.63;50.37;96705.53;4843601;29;20141;-75
2023/05/23 13:09:00;;;;;;;6.35;5.75;;;;;;;20.69;49.81;96707.22;4843703;29;20691;-75